Time;durP1;ratioP1;P1;durP2;ratioP2;P2;SDS_P1;SDS_P2;PMS_P1;PMS_P2;Temp;Humidity;BMP_temperature;BMP_pressure;BME280_temperature;BME280_humidity;BME280_pressure;Samples;Min_cycle;Max_cycle;Signal;HPM_P1;HPM_P2
2022/03/19 00:00:03;;;;;;;;;;;4.30;99.90;;;;;;5091849;28;19946;-68
2022/03/19 00:02:30;;;;;;;;;;;4.30;99.90;;;;;;5106463;28;19924;-68
2022/03/19 00:04:56;;;;;;;;;;;4.20;99.90;;;;;;5107580;28;19928;-68
2022/03/19 00:07:23;;;;;;;;;;;4.20;99.90;;;;;;5098489;28;19923;-69
2022/03/19 00:09:50;;;;;;;;;;;4.20;99.90;;;;;;5110898;28;20023;-69
2022/03/19 00:12:19;;;;;;;;;;;4.20;99.90;;;;;;5095035;28;20028;-69
2022/03/19 00:14:46;;;;;;;;;;;4.10;99.90;;;;;;5103442;28;19931;-69
2022/03/19 00:17:12;;;;;;;;;;;4.10;99.90;;;;;;5091702;28;20026;-69
2022/03/19 00:19:39;;;;;;;;;;;4.00;99.90;;;;;;5111456;28;19928;-69
2022/03/19 00:22:06;;;;;;;;;;;4.00;99.90;;;;;;5094165;28;20018;-69
2022/03/19 00:24:35;;;;;;;;;;;4.00;99.90;;;;;;5098374;28;20007;-69
2022/03/19 00:27:01;;;;;;;;;;;4.00;99.90;;;;;;5106799;28;19924;-69
2022/03/19 00:29:28;;;;;;;;;;;4.00;99.90;;;;;;5093921;28;19928;-70
2022/03/19 00:31:55;;;;;;;;;;;4.00;99.90;;;;;;5104915;28;19959;-69
2022/03/19 00:34:22;;;;;;;;;;;4.00;99.90;;;;;;5098858;28;20003;-69
2022/03/19 00:36:49;;;;;;;;;;;3.90;99.90;;;;;;5109829;28;20007;-69
2022/03/19 00:39:16;;;;;;;;;;;3.90;99.90;;;;;;5108357;28;20378;-68
2022/03/19 00:41:42;;;;;;;;;;;3.80;99.90;;;;;;5099023;28;20015;-68
2022/03/19 00:44:09;;;;;;;;;;;3.70;99.90;;;;;;5103926;28;20430;-69
2022/03/19 00:46:36;;;;;;;;;;;3.60;99.90;;;;;;5107872;28;19970;-68
2022/03/19 00:49:03;;;;;;;;;;;3.60;99.90;;;;;;5091189;28;19924;-69
2022/03/19 00:51:31;;;;;;;;;;;3.60;99.90;;;;;;5097593;28;19955;-70
2022/03/19 00:53:58;;;;;;;;;;;3.60;99.90;;;;;;5092020;28;19982;-69
2022/03/19 00:56:39;;;;;;;;;;;3.60;99.90;;;;;;5088622;28;19935;-69
2022/03/19 00:59:08;;;;;;;;;;;3.60;99.90;;;;;;5091669;28;19924;-69
2022/03/19 01:01:35;;;;;;;;;;;3.60;99.90;;;;;;5088451;28;19962;-69
2022/03/19 01:04:07;;;;;;;;;;;3.50;99.90;;;;;;5104037;28;19934;-69
2022/03/19 01:06:34;;;;;;;;;;;3.50;99.90;;;;;;5099818;28;19962;-69
2022/03/19 01:09:01;;;;;;;;;;;3.50;99.90;;;;;;5097362;28;19930;-69
2022/03/19 01:11:28;;;;;;;;;;;3.50;99.90;;;;;;5098937;28;19930;-69
2022/03/19 01:13:55;;;;;;;;;;;3.50;99.90;;;;;;5098737;28;19928;-69
2022/03/19 01:16:24;;;;;;;;;;;3.40;99.90;;;;;;5082061;28;19963;-69
2022/03/19 01:18:51;;;;;;;;;;;3.30;99.90;;;;;;5107364;28;19954;-70
2022/03/19 01:21:18;;;;;;;;;;;3.30;99.90;;;;;;5092973;28;19978;-70
2022/03/19 01:23:45;;;;;;;;;;;3.20;99.90;;;;;;5080098;28;20037;-70
2022/03/19 01:26:12;;;;;;;;;;;3.20;99.90;;;;;;5105629;28;19966;-69
2022/03/19 01:28:38;;;;;;;;;;;3.10;99.90;;;;;;5090519;28;19969;-69
2022/03/19 01:31:05;;;;;;;;;;;3.20;99.90;;;;;;5098618;28;19924;-68
2022/03/19 01:33:32;;;;;;;;;;;3.30;99.90;;;;;;5090467;28;19928;-69
2022/03/19 01:35:58;;;;;;;;;;;3.30;99.90;;;;;;5091451;28;20019;-69
2022/03/19 01:38:25;;;;;;;;;;;3.20;99.90;;;;;;5087693;28;19930;-69
2022/03/19 01:40:52;;;;;;;;;;;3.20;99.90;;;;;;5106684;28;19924;-68
2022/03/19 01:43:21;;;;;;;;;;;3.20;99.90;;;;;;5090816;28;19924;-70
2022/03/19 01:45:48;;;;;;;;;;;3.20;99.90;;;;;;5091454;28;20437;-69
2022/03/19 01:48:15;;;;;;;;;;;3.20;99.90;;;;;;5092643;28;19939;-69
2022/03/19 01:50:41;;;;;;;;;;;3.20;99.90;;;;;;5103236;28;19924;-69
2022/03/19 01:53:08;;;;;;;;;;;3.20;99.90;;;;;;5102210;28;19975;-69
2022/03/19 01:55:35;;;;;;;;;;;3.20;99.90;;;;;;5108477;28;20018;-69
2022/03/19 01:58:02;;;;;;;;;;;3.10;99.90;;;;;;5096885;28;20291;-69
2022/03/19 02:00:28;;;;;;;;;;;3.20;99.90;;;;;;5113549;28;19945;-70
2022/03/19 02:02:56;;;;;;;;;;;3.20;99.90;;;;;;5113286;28;20593;-70
2022/03/19 02:05:25;;;;;;;;;;;3.30;99.90;;;;;;5092832;28;20466;-68
2022/03/19 02:07:52;;;;;;;;;;;3.30;99.90;;;;;;5096080;28;19928;-68
2022/03/19 02:10:20;;;;;;;;;;;3.30;99.90;;;;;;5107376;28;19931;-69
2022/03/19 02:12:52;;;;;;;;;;;3.40;99.90;;;;;;5090224;28;19947;-69
2022/03/19 02:15:19;;;;;;;;;;;3.40;99.90;;;;;;5095635;28;20011;-69
2022/03/19 02:17:46;;;;;;;;;;;3.40;99.90;;;;;;5093895;28;19930;-69
2022/03/19 02:20:12;;;;;;;;;;;3.40;99.90;;;;;;5093812;28;19939;-69
2022/03/19 02:22:39;;;;;;;;;;;3.30;99.90;;;;;;5108458;28;19924;-69
2022/03/19 02:27:53;;;;;;;;;;;3.40;99.90;;;;;;5103851;28;19923;-69
2022/03/19 02:30:20;;;;;;;;;;;3.30;99.90;;;;;;5099043;28;19978;-70
2022/03/19 02:32:49;;;;;;;;;;;3.30;99.90;;;;;;5101699;28;19998;-70
2022/03/19 02:35:17;;;;;;;;;;;3.30;99.90;;;;;;5095179;28;19990;-70
2022/03/19 02:37:48;;;;;;;;;;;3.20;99.90;;;;;;5101073;28;19935;-70
2022/03/19 02:40:21;;;;;;;;;;;3.30;99.90;;;;;;5107598;28;19924;-69
2022/03/19 02:42:51;;;;;;;;;;;3.30;99.90;;;;;;5100909;28;19927;-69
2022/03/19 02:45:22;;;;;;;;;;;3.20;99.90;;;;;;5076924;28;20329;-69
2022/03/19 02:47:58;;;;;;;;;;;3.20;99.90;;;;;;5093692;28;20019;-69
2022/03/19 02:50:33;;;;;;;;;;;3.20;99.90;;;;;;5099406;28;20274;-69
2022/03/19 02:53:02;;;;;;;;;;;3.20;99.90;;;;;;5104822;28;20026;-69
2022/03/19 02:55:32;;;;;;;;;;;3.20;99.90;;;;;;5084867;28;19932;-69
2022/03/19 02:57:59;;;;;;;;;;;3.20;99.90;;;;;;5093172;28;20466;-69
2022/03/19 03:00:26;;;;;;;;;;;3.10;99.90;;;;;;5107471;28;20370;-69
2022/03/19 03:02:56;;;;;;;;;;;3.10;99.90;;;;;;5111848;28;19923;-70
2022/03/19 03:05:23;;;;;;;;;;;3.10;99.90;;;;;;5087828;28;19993;-70
2022/03/19 03:07:49;;;;;;;;;;;3.00;99.90;;;;;;5101217;28;20267;-70
2022/03/19 03:10:19;;;;;;;;;;;3.10;99.90;;;;;;5098484;28;19924;-69
2022/03/19 03:12:46;;;;;;;;;;;3.10;99.90;;;;;;5112192;28;20006;-69
2022/03/19 03:15:13;;;;;;;;;;;3.10;99.90;;;;;;5097789;28;19924;-70
2022/03/19 03:17:40;;;;;;;;;;;3.10;99.90;;;;;;5090876;28;19924;-70
2022/03/19 03:20:09;;;;;;;;;;;3.00;99.90;;;;;;5102158;28;19924;-69
2022/03/19 03:22:37;;;;;;;;;;;3.00;99.90;;;;;;5110754;28;19928;-69
2022/03/19 03:25:05;;;;;;;;;;;3.00;99.90;;;;;;5110442;28;19928;-69
2022/03/19 03:27:32;;;;;;;;;;;3.00;99.90;;;;;;5098449;28;20015;-70
2022/03/19 03:29:58;;;;;;;;;;;3.00;99.90;;;;;;5105921;28;20007;-70
2022/03/19 03:32:25;;;;;;;;;;;3.00;99.90;;;;;;5109055;28;20282;-69
2022/03/19 03:34:52;;;;;;;;;;;3.00;99.90;;;;;;5098219;28;19930;-70
2022/03/19 03:37:21;;;;;;;;;;;3.00;99.90;;;;;;5103252;28;19935;-70
2022/03/19 03:39:48;;;;;;;;;;;3.00;99.90;;;;;;5111498;28;20373;-69
2022/03/19 03:42:17;;;;;;;;;;;2.90;99.90;;;;;;5094545;28;19923;-69
2022/03/19 03:44:43;;;;;;;;;;;2.90;99.90;;;;;;5109881;28;19978;-67
2022/03/19 03:47:10;;;;;;;;;;;2.90;99.90;;;;;;5107156;28;19928;-68
2022/03/19 03:49:37;;;;;;;;;;;2.90;99.90;;;;;;5092080;28;19924;-69
2022/03/19 03:52:04;;;;;;;;;;;2.80;99.90;;;;;;5092468;28;20446;-69
2022/03/19 03:54:31;;;;;;;;;;;2.80;99.90;;;;;;5092380;28;19967;-68
2022/03/19 03:56:58;;;;;;;;;;;2.70;99.90;;;;;;5109741;28;20008;-68
2022/03/19 03:59:25;;;;;;;;;;;2.70;99.90;;;;;;5110961;28;20015;-69
2022/03/19 04:01:54;;;;;;;;;;;2.70;99.90;;;;;;5077917;28;19928;-69
2022/03/19 04:04:21;;;;;;;;;;;2.60;99.90;;;;;;5105647;28;19924;-68
2022/03/19 04:06:48;;;;;;;;;;;2.40;99.90;;;;;;5101033;28;19999;-69
2022/03/19 04:09:18;;;;;;;;;;;2.30;99.90;;;;;;5098033;28;20015;-69
2022/03/19 04:11:44;;;;;;;;;;;2.30;99.90;;;;;;5093876;28;19974;-68
2022/03/19 04:14:11;;;;;;;;;;;2.30;99.90;;;;;;5111062;28;19955;-69
2022/03/19 04:16:40;;;;;;;;;;;2.30;99.90;;;;;;5099741;28;19924;-68
2022/03/19 04:19:07;;;;;;;;;;;2.20;99.90;;;;;;5091729;28;20379;-69
2022/03/19 04:21:34;;;;;;;;;;;2.30;99.90;;;;;;5096787;28;19923;-69
2022/03/19 04:24:00;;;;;;;;;;;2.30;99.90;;;;;;5079083;28;19997;-69
2022/03/19 04:26:27;;;;;;;;;;;2.20;99.90;;;;;;5106954;28;20571;-69
2022/03/19 04:28:56;;;;;;;;;;;2.20;99.90;;;;;;5095195;28;19927;-69
2022/03/19 04:31:22;;;;;;;;;;;2.20;99.90;;;;;;5088965;28;20020;-69
2022/03/19 04:33:49;;;;;;;;;;;2.30;99.90;;;;;;5090921;28;20042;-69
2022/03/19 04:36:32;;;;;;;;;;;2.30;99.90;;;;;;5091570;28;20321;-69
2022/03/19 04:38:59;;;;;;;;;;;2.30;99.90;;;;;;5091169;28;19935;-69
2022/03/19 04:41:26;;;;;;;;;;;2.30;99.90;;;;;;5090694;28;19924;-69
2022/03/19 04:43:53;;;;;;;;;;;2.30;99.90;;;;;;5091682;28;20011;-69
2022/03/19 04:46:21;;;;;;;;;;;2.40;99.90;;;;;;5100780;28;20002;-69
2022/03/19 04:48:48;;;;;;;;;;;2.30;99.90;;;;;;5106840;28;19928;-69
2022/03/19 04:51:17;;;;;;;;;;;2.30;99.90;;;;;;5110499;28;20015;-70
2022/03/19 04:53:50;;;;;;;;;;;2.30;99.90;;;;;;5110419;28;19990;-68
2022/03/19 04:56:18;;;;;;;;;;;2.40;99.90;;;;;;5092896;28;19924;-69
2022/03/19 04:58:48;;;;;;;;;;;2.40;99.90;;;;;;5092617;28;19923;-69
2022/03/19 05:01:16;;;;;;;;;;;2.40;99.90;;;;;;5107894;28;19927;-69
2022/03/19 05:03:45;;;;;;;;;;;2.40;99.90;;;;;;5097012;28;19932;-68
2022/03/19 05:06:12;;;;;;;;;;;2.40;99.90;;;;;;5101251;28;19978;-69
2022/03/19 05:08:39;;;;;;;;;;;2.40;99.90;;;;;;5105695;28;19979;-69
2022/03/19 05:11:15;;;;;;;;;;;2.50;99.90;;;;;;5104110;28;19957;-68
2022/03/19 05:13:45;;;;;;;;;;;2.40;99.90;;;;;;5108201;28;19924;-68
2022/03/19 05:16:12;;;;;;;;;;;2.40;99.90;;;;;;5095936;28;20437;-68
2022/03/19 05:18:39;;;;;;;;;;;2.30;99.90;;;;;;5097897;28;20019;-68
2022/03/19 05:21:12;;;;;;;;;;;2.40;99.90;;;;;;5094859;28;19958;-69
2022/03/19 05:23:41;;;;;;;;;;;2.40;99.90;;;;;;5108787;28;19991;-69
2022/03/19 05:26:07;;;;;;;;;;;2.40;99.90;;;;;;5103316;28;19923;-69
2022/03/19 05:28:35;;;;;;;;;;;2.40;99.90;;;;;;5112031;28;19967;-69
2022/03/19 05:31:21;;;;;;;;;;;2.40;99.90;;;;;;5112750;28;19954;-68
2022/03/19 05:36:33;;;;;;;;;;;2.50;99.90;;;;;;5099971;28;19994;-69
2022/03/19 05:39:00;;;;;;;;;;;2.40;99.90;;;;;;5112731;28;19924;-70
2022/03/19 05:41:30;;;;;;;;;;;2.40;99.90;;;;;;5112367;28;20010;-70
2022/03/19 05:44:01;;;;;;;;;;;2.40;99.90;;;;;;5091635;28;19934;-70
2022/03/19 05:46:27;;;;;;;;;;;2.40;99.90;;;;;;5094059;28;20006;-70
2022/03/19 05:48:54;;;;;;;;;;;2.40;99.90;;;;;;5094600;28;19924;-69
2022/03/19 05:51:21;;;;;;;;;;;2.40;99.90;;;;;;5081414;28;19930;-69
2022/03/19 05:53:47;;;;;;;;;;;2.40;99.90;;;;;;5113529;28;20022;-69
2022/03/19 05:56:16;;;;;;;;;;;2.40;99.90;;;;;;5101215;28;20282;-69
2022/03/19 05:58:43;;;;;;;;;;;2.50;99.90;;;;;;5094319;28;19928;-68
2022/03/19 06:01:09;;;;;;;;;;;2.50;99.90;;;;;;5094579;28;19946;-68
2022/03/19 06:03:38;;;;;;;;;;;2.60;99.90;;;;;;5094654;28;19931;-68
2022/03/19 06:06:05;;;;;;;;;;;2.60;99.90;;;;;;5094447;28;19928;-69
2022/03/19 06:08:35;;;;;;;;;;;2.70;99.90;;;;;;5082636;28;20054;-69
2022/03/19 06:11:02;;;;;;;;;;;2.70;99.90;;;;;;5094811;28;20412;-69
2022/03/19 06:13:29;;;;;;;;;;;2.80;99.90;;;;;;5094239;28;20413;-68
2022/03/19 06:15:56;;;;;;;;;;;2.90;99.90;;;;;;5106210;28;19950;-69
2022/03/19 06:18:23;;;;;;;;;;;2.90;99.90;;;;;;5108586;28;20307;-70
2022/03/19 06:20:49;;;;;;;;;;;3.00;99.90;;;;;;5093966;28;19924;-70
2022/03/19 06:23:16;;;;;;;;;;;3.10;99.90;;;;;;5098087;28;19931;-68
2022/03/19 06:25:43;;;;;;;;;;;3.30;99.90;;;;;;5112551;28;20010;-69
2022/03/19 06:28:12;;;;;;;;;;;3.40;99.90;;;;;;5108486;28;19924;-70
2022/03/19 06:30:39;;;;;;;;;;;3.70;99.90;;;;;;5102075;28;19966;-70
2022/03/19 06:33:06;;;;;;;;;;;4.40;99.90;;;;;;5110234;28;19928;-68
2022/03/19 06:38:21;;;;;;;;;;;5.90;99.90;;;;;;5102365;28;20287;-68
2022/03/19 06:40:48;;;;;;;;;;;6.70;99.90;;;;;;5109023;28;19934;-69
2022/03/19 06:43:14;;;;;;;;;;;7.10;99.90;;;;;;5101874;28;19924;-70
2022/03/19 06:45:41;;;;;;;;;;;7.50;99.90;;;;;;5113075;28;20002;-68
2022/03/19 06:48:08;;;;;;;;;;;7.80;99.90;;;;;;5095521;28;20038;-69
2022/03/19 06:50:34;;;;;;;;;;;8.00;99.90;;;;;;5092330;28;19924;-69
2022/03/19 06:53:02;;;;;;;;;;;8.30;99.90;;;;;;5093802;28;20006;-70
2022/03/19 06:55:31;;;;;;;;;;;8.50;99.90;;;;;;5112211;28;19931;-69
2022/03/19 06:57:58;;;;;;;;;;;8.70;99.90;;;;;;5111084;28;20027;-69
2022/03/19 07:00:25;;;;;;;;;;;8.80;99.90;;;;;;5097823;28;20278;-69
2022/03/19 07:02:55;;;;;;;;;;;9.20;99.90;;;;;;5103539;28;19930;-69
2022/03/19 07:05:23;;;;;;;;;;;9.50;99.90;;;;;;5096426;28;20336;-69
2022/03/19 07:07:50;;;;;;;;;;;9.80;99.90;;;;;;5098020;28;19924;-69
2022/03/19 07:10:19;;;;;;;;;;;9.70;99.90;;;;;;5093141;28;20566;-68
2022/03/19 07:12:47;;;;;;;;;;;10.00;99.90;;;;;;5093315;28;19928;-68
2022/03/19 07:15:14;;;;;;;;;;;10.20;99.90;;;;;;5093533;28;20359;-68
2022/03/19 07:17:43;;;;;;;;;;;10.40;99.90;;;;;;5098506;28;19958;-69
2022/03/19 07:20:12;;;;;;;;;;;10.50;99.90;;;;;;5085845;28;19924;-68
2022/03/19 07:22:52;;;;;;;;;;;10.60;99.90;;;;;;5091912;28;20027;-69
2022/03/19 07:25:20;;;;;;;;;;;10.70;99.90;;;;;;5092628;28;19931;-68
2022/03/19 07:27:47;;;;;;;;;;;10.90;99.90;;;;;;5089901;28;20003;-68
2022/03/19 07:30:13;;;;;;;;;;;10.80;99.90;;;;;;5093116;28;20362;-69
2022/03/19 07:32:40;;;;;;;;;;;10.70;99.90;;;;;;5093079;28;19936;-69
2022/03/19 07:35:07;;;;;;;;;;;10.60;99.90;;;;;;5100281;28;20402;-69
2022/03/19 07:37:34;;;;;;;;;;;10.40;99.90;;;;;;5094773;28;20007;-69
2022/03/19 07:40:01;;;;;;;;;;;10.20;99.90;;;;;;5087646;28;19924;-69
2022/03/19 07:42:27;;;;;;;;;;;10.20;99.90;;;;;;5100870;28;19925;-69
2022/03/19 07:44:56;;;;;;;;;;;10.30;99.90;;;;;;5093010;28;19924;-69
2022/03/19 07:47:23;;;;;;;;;;;10.40;99.90;;;;;;5085488;28;20330;-68
2022/03/19 07:49:50;;;;;;;;;;;10.60;99.90;;;;;;5095417;28;19924;-68
2022/03/19 07:52:20;;;;;;;;;;;10.40;99.90;;;;;;5100227;28;19931;-68
2022/03/19 07:54:47;;;;;;;;;;;10.50;99.90;;;;;;5091986;28;19975;-68
2022/03/19 07:57:13;;;;;;;;;;;10.40;99.90;;;;;;5104723;28;19959;-68
2022/03/19 07:59:41;;;;;;;;;;;10.50;99.90;;;;;;5091317;28;19930;-68
2022/03/19 08:02:08;;;;;;;;;;;10.30;99.90;;;;;;5096263;28;19959;-69
2022/03/19 08:04:34;;;;;;;;;;;10.40;99.90;;;;;;5111938;28;19930;-69
2022/03/19 08:07:01;;;;;;;;;;;10.70;99.90;;;;;;5097441;28;20347;-69
2022/03/19 08:09:28;;;;;;;;;;;10.70;99.90;;;;;;5092384;28;19946;-69
2022/03/19 08:11:55;;;;;;;;;;;10.60;99.90;;;;;;5092199;28;20027;-69
2022/03/19 08:14:26;;;;;;;;;;;10.20;99.90;;;;;;5103028;28;20123;-68
2022/03/19 08:16:53;;;;;;;;;;;10.10;99.90;;;;;;5103840;28;20450;-68
2022/03/19 08:19:20;;;;;;;;;;;10.50;99.90;;;;;;5091854;28;20377;-68
2022/03/19 08:21:46;;;;;;;;;;;11.00;99.90;;;;;;5104993;28;19927;-68
2022/03/19 08:24:13;;;;;;;;;;;11.30;99.90;;;;;;5109075;28;19962;-68
2022/03/19 08:26:40;;;;;;;;;;;11.40;99.90;;;;;;5110845;28;19931;-68
2022/03/19 08:29:07;;;;;;;;;;;11.70;99.90;;;;;;5100868;28;19935;-68
2022/03/19 08:31:33;;;;;;;;;;;11.70;99.90;;;;;;5108154;28;19952;-68
2022/03/19 08:34:00;;;;;;;;;;;11.60;99.90;;;;;;5102750;28;20018;-69
2022/03/19 08:36:27;;;;;;;;;;;11.80;99.90;;;;;;5110989;28;19928;-68
2022/03/19 08:41:41;;;;;;;;;;;11.90;99.90;;;;;;5091275;28;19959;-68
2022/03/19 08:44:07;;;;;;;;;;;11.90;99.90;;;;;;5106115;28;20007;-68
2022/03/19 08:46:34;;;;;;;;;;;11.70;99.90;;;;;;5090806;28;20404;-68
2022/03/19 08:49:01;;;;;;;;;;;11.50;99.90;;;;;;5091802;28;20015;-70
2022/03/19 08:51:40;;;;;;;;;;;11.30;99.90;;;;;;5073799;28;19932;-69
2022/03/19 08:54:09;;;;;;;;;;;11.50;99.90;;;;;;5091578;28;19928;-67
2022/03/19 08:56:36;;;;;;;;;;;11.60;99.90;;;;;;5103489;28;19959;-69
2022/03/19 08:59:03;;;;;;;;;;;11.80;99.90;;;;;;5101059;28;19946;-68
2022/03/19 09:01:31;;;;;;;;;;;11.80;99.90;;;;;;5092767;28;19931;-67
2022/03/19 09:03:58;;;;;;;;;;;11.70;99.90;;;;;;5100263;28;19998;-67
2022/03/19 09:06:26;;;;;;;;;;;12.20;99.90;;;;;;5109922;28;19931;-67
2022/03/19 09:08:52;;;;;;;;;;;12.50;99.90;;;;;;5107677;28;20367;-67
2022/03/19 09:11:19;;;;;;;;;;;12.60;99.90;;;;;;5095355;28;19924;-67
2022/03/19 09:13:46;;;;;;;;;;;12.70;99.90;;;;;;5096552;28;19931;-67
2022/03/19 09:16:13;;;;;;;;;;;12.80;99.90;;;;;;5099003;28;20577;-68
2022/03/19 09:18:42;;;;;;;;;;;12.60;99.90;;;;;;5090052;28;19924;-68
2022/03/19 09:21:11;;;;;;;;;;;12.80;99.90;;;;;;5100688;28;20014;-68
2022/03/19 09:23:38;;;;;;;;;;;13.00;99.90;;;;;;5095241;28;20034;-68
2022/03/19 09:26:05;;;;;;;;;;;13.50;99.90;;;;;;5090584;28;20011;-68
2022/03/19 09:28:31;;;;;;;;;;;13.70;99.90;;;;;;5093296;28;19956;-69
2022/03/19 09:31:00;;;;;;;;;;;13.70;99.90;;;;;;5110472;28;19959;-67
2022/03/19 09:33:28;;;;;;;;;;;;;;;;;;5098188;28;19934;-67
2022/03/19 09:35:57;;;;;;;;;;;14.10;99.90;;;;;;5108742;28;19924;-67
2022/03/19 09:38:24;;;;;;;;;;;14.50;99.90;;;;;;5102780;28;20031;-67
2022/03/19 09:40:54;;;;;;;;;;;14.40;99.90;;;;;;5107583;28;20299;-67
2022/03/19 09:43:25;;;;;;;;;;;14.30;99.90;;;;;;5109538;28;19924;-67
2022/03/19 09:45:52;;;;;;;;;;;14.30;99.90;;;;;;5093459;28;19982;-67
2022/03/19 09:48:19;;;;;;;;;;;14.20;99.90;;;;;;5091156;28;19924;-67
2022/03/19 09:50:49;;;;;;;;;;;14.20;99.90;;;;;;5090526;28;19930;-67
2022/03/19 09:53:17;;;;;;;;;;;14.40;99.90;;;;;;5110201;28;19967;-67
2022/03/19 09:55:53;;;;;;;;;;;14.40;99.90;;;;;;5091583;28;19924;-67
2022/03/19 09:58:20;;;;;;;;;;;13.90;99.90;;;;;;5095183;28;19924;-68
2022/03/19 10:00:47;;;;;;;;;;;14.00;99.90;;;;;;5108147;28;19934;-67
2022/03/19 10:03:14;;;;;;;;;;;14.10;99.90;;;;;;5105623;28;19924;-68
2022/03/19 10:08:37;;;;;;;;;;;14.90;99.90;;;;;;5105255;28;19974;-68
2022/03/19 10:11:04;;;;;;;;;;;15.50;99.90;;;;;;5090553;28;19959;-68
2022/03/19 10:13:31;;;;;;;;;;;15.40;99.60;;;;;;5108201;28;20022;-68
2022/03/19 10:16:00;;;;;;;;;;;15.60;99.30;;;;;;5095103;28;19955;-67
2022/03/19 10:18:31;;;;;;;;;;;15.60;98.50;;;;;;5091606;28;20017;-67
2022/03/19 10:21:02;;;;;;;;;;;15.60;98.30;;;;;;5097304;28;19946;-67
2022/03/19 10:23:32;;;;;;;;;;;15.20;98.10;;;;;;5112585;28;19978;-67
2022/03/19 10:26:00;;;;;;;;;;;15.50;98.10;;;;;;5112822;28;19928;-67
2022/03/19 10:28:30;;;;;;;;;;;15.90;97.70;;;;;;5110973;28;20007;-67
2022/03/19 10:31:00;;;;;;;;;;;16.20;97.50;;;;;;5095450;28;20124;-67
2022/03/19 10:33:28;;;;;;;;;;;16.00;96.30;;;;;;5093863;28;20420;-67
2022/03/19 10:36:05;;;;;;;;;;;15.80;96.10;;;;;;5104007;28;19930;-67
2022/03/19 10:38:40;;;;;;;;;;;15.40;96.30;;;;;;5078175;28;19931;-67
2022/03/19 10:41:06;;;;;;;;;;;15.70;95.60;;;;;;5098076;28;20349;-67
2022/03/19 10:43:43;;;;;;;;;;;15.70;96.00;;;;;;5102057;28;19931;-68
2022/03/19 10:46:10;;;;;;;;;;;15.60;95.80;;;;;;5109041;28;19969;-67
2022/03/19 10:48:37;;;;;;;;;;;15.90;95.50;;;;;;5092094;28;19924;-67
2022/03/19 10:51:10;;;;;;;;;;;15.80;95.50;;;;;;5092936;28;19928;-68
2022/03/19 10:53:38;;;;;;;;;;;16.50;96.10;;;;;;5107776;28;20019;-68
2022/03/19 10:56:06;;;;;;;;;;;17.10;95.00;;;;;;5108028;28;19956;-67
2022/03/19 10:58:44;;;;;;;;;;;17.90;94.90;;;;;;5101721;28;19995;-67
2022/03/19 11:01:13;;;;;;;;;;;17.70;94.70;;;;;;5106379;28;20010;-68
2022/03/19 11:03:42;;;;;;;;;;;17.40;94.70;;;;;;5092913;28;20363;-67
2022/03/19 11:06:10;;;;;;;;;;;17.40;94.70;;;;;;5083624;28;20111;-67
2022/03/19 11:08:38;;;;;;;;;;;17.10;94.80;;;;;;5092850;28;20376;-67
2022/03/19 11:11:11;;;;;;;;;;;17.40;95.10;;;;;;5093459;28;20039;-67
2022/03/19 11:13:41;;;;;;;;;;;17.50;94.00;;;;;;5091896;28;20285;-68
2022/03/19 11:16:10;;;;;;;;;;;17.30;93.90;;;;;;5094657;28;20381;-67
2022/03/19 11:18:37;;;;;;;;;;;17.20;94.20;;;;;;5092344;28;20485;-67
2022/03/19 11:21:04;;;;;;;;;;;17.20;94.40;;;;;;5100411;28;19923;-68
2022/03/19 11:23:34;;;;;;;;;;;16.70;93.50;;;;;;5092254;28;19957;-67
2022/03/19 11:26:01;;;;;;;;;;;16.70;94.00;;;;;;5092707;28;19924;-67
2022/03/19 11:28:29;;;;;;;;;;;16.90;93.90;;;;;;5087232;28;20006;-67
2022/03/19 11:30:58;;;;;;;;;;;17.50;93.60;;;;;;5095700;28;20023;-68
2022/03/19 11:33:27;;;;;;;;;;;17.90;93.70;;;;;;5106822;28;19924;-68
2022/03/19 11:36:00;;;;;;;;;;;18.00;93.10;;;;;;5090084;28;20011;-68
2022/03/19 11:38:28;;;;;;;;;;;18.00;92.10;;;;;;5074171;28;19928;-67
2022/03/19 11:40:56;;;;;;;;;;;17.90;92.60;;;;;;5107602;28;19963;-68
2022/03/19 11:43:31;;;;;;;;;;;18.10;92.40;;;;;;5096785;28;19977;-67
2022/03/19 11:46:00;;;;;;;;;;;18.20;92.50;;;;;;5109322;28;19924;-67
2022/03/19 11:48:48;;;;;;;;;;;17.80;92.30;;;;;;5076428;28;19928;-67
2022/03/19 11:51:24;;;;;;;;;;;17.60;92.80;;;;;;5081747;28;19928;-68
2022/03/19 11:53:54;;;;;;;;;;;17.20;92.00;;;;;;5092850;28;20287;-68
2022/03/19 11:56:21;;;;;;;;;;;16.50;92.40;;;;;;5091316;28;19931;-68
2022/03/19 11:58:48;;;;;;;;;;;16.50;92.90;;;;;;5096791;28;20344;-68
2022/03/19 12:01:15;;;;;;;;;;;16.30;92.40;;;;;;5109312;28;20003;-68
2022/03/19 12:04:00;;;;;;;;;;;16.40;92.40;;;;;;5109836;28;19923;-77
2022/03/19 12:06:28;;;;;;;;;;;16.60;91.70;;;;;;5105131;28;20019;-78
2022/03/19 12:08:55;;;;;;;;;;;16.40;91.90;;;;;;5107867;28;20014;-77
2022/03/19 12:11:22;;;;;;;;;;;16.70;91.70;;;;;;5103102;28;20010;-77
2022/03/19 12:13:49;;;;;;;;;;;16.70;91.40;;;;;;5085433;28;20011;-75
2022/03/19 12:16:35;;;;;;;;;;;16.90;90.50;;;;;;5102218;28;20006;-75
2022/03/19 12:19:02;;;;;;;;;;;16.80;90.20;;;;;;5094880;28;20006;-77
2022/03/19 12:21:33;;;;;;;;;;;16.80;90.00;;;;;;5115193;27;20006;-75
2022/03/19 12:23:59;;;;;;;;;;;16.70;88.40;;;;;;5111193;28;19930;-75
2022/03/19 12:26:35;;;;;;;;;;;16.50;87.50;;;;;;5093072;28;19924;-76
2022/03/19 12:29:03;;;;;;;;;;;16.80;87.60;;;;;;5093509;28;20007;-76
2022/03/19 12:31:31;;;;;;;;;;;16.60;85.20;;;;;;5103317;28;20011;-77
2022/03/19 12:33:58;;;;;;;;;;;16.50;86.10;;;;;;5093446;28;19924;-76
2022/03/19 12:36:25;;;;;;;;;;;16.50;84.90;;;;;;5107760;28;19924;-76
2022/03/19 12:38:59;;;;;;;;;;;16.50;84.50;;;;;;5076203;28;20383;-77
2022/03/19 12:41:29;;;;;;;;;;;16.20;84.90;;;;;;5093584;28;20026;-76
2022/03/19 12:44:21;;;;;;;;;;;16.10;84.70;;;;;;5092966;28;19931;-76
2022/03/19 12:46:58;;;;;;;;;;;16.50;86.30;;;;;;5092661;28;19924;-77
2022/03/19 12:49:26;;;;;;;;;;;16.70;84.50;;;;;;5100666;28;19924;-76
2022/03/19 12:51:53;;;;;;;;;;;16.50;84.00;;;;;;5093526;28;19928;-77
2022/03/19 12:54:30;;;;;;;;;;;16.40;84.40;;;;;;5107052;28;19924;-77
2022/03/19 12:56:58;;;;;;;;;;;16.60;84.80;;;;;;5091706;28;20413;-76
2022/03/19 12:59:29;;;;;;;;;;;16.60;85.00;;;;;;5093057;28;19924;-76
2022/03/19 13:01:56;;;;;;;;;;;16.50;82.60;;;;;;5092378;28;19924;-76
2022/03/19 13:04:24;;;;;;;;;;;16.40;82.30;;;;;;5092793;28;19931;-76
2022/03/19 13:06:59;;;;;;;;;;;16.20;82.60;;;;;;5095957;28;20030;-76
2022/03/19 13:09:28;;;;;;;;;;;16.40;84.10;;;;;;5113081;28;19930;-76
2022/03/19 13:11:55;;;;;;;;;;;16.30;81.60;;;;;;5092104;28;19955;-76
2022/03/19 13:14:24;;;;;;;;;;;16.00;82.30;;;;;;5106105;28;20011;-76
2022/03/19 13:16:54;;;;;;;;;;;16.00;81.90;;;;;;5092018;28;19946;-75
2022/03/19 13:19:21;;;;;;;;;;;15.90;83.10;;;;;;5107055;28;19924;-76
2022/03/19 13:21:51;;;;;;;;;;;16.10;82.50;;;;;;5093116;28;20014;-76
2022/03/19 13:24:18;;;;;;;;;;;16.10;82.90;;;;;;5100590;28;19928;-77
2022/03/19 13:26:45;;;;;;;;;;;15.90;82.00;;;;;;5107843;28;19924;-76
2022/03/19 13:29:24;;;;;;;;;;;16.10;82.40;;;;;;5092187;28;19924;-76
2022/03/19 13:31:55;;;;;;;;;;;16.10;82.90;;;;;;5104673;28;20358;-76
2022/03/19 13:34:25;;;;;;;;;;;16.10;82.40;;;;;;5096268;28;19930;-76
2022/03/19 13:36:56;;;;;;;;;;;16.60;83.20;;;;;;5111099;28;19980;-76
2022/03/19 13:39:23;;;;;;;;;;;16.70;81.30;;;;;;5091050;28;19924;-77
2022/03/19 13:41:51;;;;;;;;;;;16.90;80.40;;;;;;5107521;28;19983;-76
2022/03/19 13:44:33;;;;;;;;;;;16.70;80.80;;;;;;5101503;28;20022;-76
2022/03/19 13:47:06;;;;;;;;;;;16.40;78.80;;;;;;5098071;28;19963;-77
2022/03/19 13:49:40;;;;;;;;;;;16.40;77.90;;;;;;5096287;28;20022;-76
2022/03/19 13:52:25;;;;;;;;;;;16.30;78.70;;;;;;5095941;28;20027;-75
2022/03/19 13:54:51;;;;;;;;;;;16.20;79.70;;;;;;5096425;28;19928;-76
2022/03/19 13:57:18;;;;;;;;;;;16.00;80.20;;;;;;5105109;28;19962;-75
2022/03/19 13:59:45;;;;;;;;;;;16.20;80.70;;;;;;5101288;28;20349;-75
2022/03/19 14:02:12;;;;;;;;;;;16.10;80.10;;;;;;5097913;28;19924;-76
2022/03/19 14:04:39;;;;;;;;;;;16.30;78.60;;;;;;5109100;28;19924;-75
2022/03/19 14:07:06;;;;;;;;;;;16.10;79.60;;;;;;5095788;28;19924;-75
2022/03/19 14:09:33;;;;;;;;;;;16.70;80.40;;;;;;5101671;28;19959;-76
2022/03/19 14:12:00;;;;;;;;;;;16.80;80.00;;;;;;5104301;28;20382;-75
2022/03/19 14:14:34;;;;;;;;;;;16.80;80.70;;;;;;5097170;28;19924;-76
2022/03/19 14:17:01;;;;;;;;;;;17.00;78.40;;;;;;5094661;28;20003;-76
2022/03/19 14:19:29;;;;;;;;;;;17.10;78.50;;;;;;5112607;28;19935;-77
2022/03/19 14:21:56;;;;;;;;;;;17.50;76.50;;;;;;5104667;28;19924;-79
2022/03/19 14:24:31;;;;;;;;;;;17.00;75.50;;;;;;5103972;28;19924;-76
2022/03/19 14:26:58;;;;;;;;;;;16.10;73.90;;;;;;5099513;28;19971;-77
2022/03/19 14:29:25;;;;;;;;;;;15.50;75.70;;;;;;5115469;28;19923;-77
2022/03/19 14:31:51;;;;;;;;;;;15.80;77.10;;;;;;5115595;28;20635;-77
2022/03/19 14:34:19;;;;;;;;;;;16.30;77.60;;;;;;5098037;28;19934;-77
2022/03/19 14:36:47;;;;;;;;;;;16.60;76.90;;;;;;5098109;28;19923;-77
2022/03/19 14:39:13;;;;;;;;;;;16.60;78.20;;;;;;5108049;28;19930;-77
2022/03/19 14:41:41;;;;;;;;;;;16.40;77.10;;;;;;5096338;28;20427;-76
2022/03/19 14:44:08;;;;;;;;;;;15.80;77.10;;;;;;5105885;28;19931;-78